sensor_id;sensor_type;location;lat;lon;timestamp;P1;durP1;ratioP1;P2;durP2;ratioP2
35877;SDS011;21982;49.804;24.072;2023-07-29T00:01:37;5.82;;;2.58;;
35877;SDS011;21982;49.804;24.072;2023-07-29T00:04:04;4.68;;;2.40;;
35877;SDS011;21982;49.804;24.072;2023-07-29T00:06:30;7.10;;;2.55;;
35877;SDS011;21982;49.804;24.072;2023-07-29T00:08:55;4.10;;;2.00;;
35877;SDS011;21982;49.804;24.072;2023-07-29T00:11:23;6.28;;;2.45;;
35877;SDS011;21982;49.804;24.072;2023-07-29T00:13:49;4.18;;;2.35;;
35877;SDS011;21982;49.804;24.072;2023-07-29T00:16:15;5.68;;;2.33;;
35877;SDS011;21982;49.804;24.072;2023-07-29T00:18:43;8.50;;;3.05;;
35877;SDS011;21982;49.804;24.072;2023-07-29T00:21:08;5.72;;;2.83;;
35877;SDS011;21982;49.804;24.072;2023-07-29T00:23:34;4.63;;;2.65;;
35877;SDS011;21982;49.804;24.072;2023-07-29T00:25:59;7.20;;;3.25;;
35877;SDS011;21982;49.804;24.072;2023-07-29T00:28:24;8.30;;;3.15;;
35877;SDS011;21982;49.804;24.072;2023-07-29T00:30:50;6.30;;;2.90;;
35877;SDS011;21982;49.804;24.072;2023-07-29T00:33:15;5.28;;;2.75;;
35877;SDS011;21982;49.804;24.072;2023-07-29T00:35:40;4.57;;;2.45;;
35877;SDS011;21982;49.804;24.072;2023-07-29T00:38:06;4.97;;;2.70;;
35877;SDS011;21982;49.804;24.072;2023-07-29T00:40:31;7.40;;;2.85;;
35877;SDS011;21982;49.804;24.072;2023-07-29T00:43:05;7.10;;;2.92;;
35877;SDS011;21982;49.804;24.072;2023-07-29T00:45:31;5.00;;;2.60;;
35877;SDS011;21982;49.804;24.072;2023-07-29T00:47:58;4.75;;;2.38;;
35877;SDS011;21982;49.804;24.072;2023-07-29T00:50:24;4.38;;;2.20;;
35877;SDS011;21982;49.804;24.072;2023-07-29T00:52:52;6.95;;;2.35;;
35877;SDS011;21982;49.804;24.072;2023-07-29T00:55:18;4.93;;;2.60;;
35877;SDS011;21982;49.804;24.072;2023-07-29T00:57:43;4.43;;;2.30;;
35877;SDS011;21982;49.804;24.072;2023-07-29T01:00:13;5.13;;;2.28;;
35877;SDS011;21982;49.804;24.072;2023-07-29T01:02:40;5.22;;;2.50;;
35877;SDS011;21982;49.804;24.072;2023-07-29T01:05:07;4.93;;;2.97;;
35877;SDS011;21982;49.804;24.072;2023-07-29T01:07:39;4.20;;;2.33;;
35877;SDS011;21982;49.804;24.072;2023-07-29T01:13:41;7.60;;;2.63;;
35877;SDS011;21982;49.804;24.072;2023-07-29T01:16:10;5.90;;;2.80;;
35877;SDS011;21982;49.804;24.072;2023-07-29T01:18:42;5.60;;;2.90;;
35877;SDS011;21982;49.804;24.072;2023-07-29T01:21:13;8.27;;;2.70;;
35877;SDS011;21982;49.804;24.072;2023-07-29T01:23:40;5.28;;;2.63;;
35877;SDS011;21982;49.804;24.072;2023-07-29T01:26:06;5.50;;;2.70;;
35877;SDS011;21982;49.804;24.072;2023-07-29T01:28:31;6.53;;;2.75;;
35877;SDS011;21982;49.804;24.072;2023-07-29T01:31:01;6.57;;;2.70;;
35877;SDS011;21982;49.804;24.072;2023-07-29T01:33:42;3.95;;;2.42;;
35877;SDS011;21982;49.804;24.072;2023-07-29T01:36:18;9.05;;;3.70;;
35877;SDS011;21982;49.804;24.072;2023-07-29T01:38:48;6.40;;;2.97;;
35877;SDS011;21982;49.804;24.072;2023-07-29T01:41:14;4.95;;;2.60;;
35877;SDS011;21982;49.804;24.072;2023-07-29T01:43:42;5.78;;;2.67;;
35877;SDS011;21982;49.804;24.072;2023-07-29T01:46:12;7.97;;;3.17;;
35877;SDS011;21982;49.804;24.072;2023-07-29T01:48:38;4.78;;;2.42;;
35877;SDS011;21982;49.804;24.072;2023-07-29T01:51:04;5.43;;;3.03;;
35877;SDS011;21982;49.804;24.072;2023-07-29T01:53:31;6.05;;;3.03;;
35877;SDS011;21982;49.804;24.072;2023-07-29T01:55:56;8.27;;;3.08;;
35877;SDS011;21982;49.804;24.072;2023-07-29T01:58:22;6.35;;;2.88;;
35877;SDS011;21982;49.804;24.072;2023-07-29T02:00:48;6.10;;;2.45;;
35877;SDS011;21982;49.804;24.072;2023-07-29T02:03:13;5.90;;;2.88;;
35877;SDS011;21982;49.804;24.072;2023-07-29T02:05:39;5.22;;;2.78;;
35877;SDS011;21982;49.804;24.072;2023-07-29T02:08:04;5.57;;;2.50;;
35877;SDS011;21982;49.804;24.072;2023-07-29T02:10:29;5.97;;;2.42;;
35877;SDS011;21982;49.804;24.072;2023-07-29T02:12:55;4.78;;;2.50;;
35877;SDS011;21982;49.804;24.072;2023-07-29T02:15:20;6.50;;;2.70;;
35877;SDS011;21982;49.804;24.072;2023-07-29T02:17:46;4.88;;;2.95;;
35877;SDS011;21982;49.804;24.072;2023-07-29T02:20:11;5.82;;;2.70;;
35877;SDS011;21982;49.804;24.072;2023-07-29T02:22:37;6.22;;;2.53;;
35877;SDS011;21982;49.804;24.072;2023-07-29T02:25:02;7.38;;;2.92;;
35877;SDS011;21982;49.804;24.072;2023-07-29T02:27:28;7.47;;;4.03;;
35877;SDS011;21982;49.804;24.072;2023-07-29T02:29:53;5.85;;;3.20;;
35877;SDS011;21982;49.804;24.072;2023-07-29T02:32:19;5.65;;;2.78;;
35877;SDS011;21982;49.804;24.072;2023-07-29T02:34:45;6.07;;;2.70;;
35877;SDS011;21982;49.804;24.072;2023-07-29T02:37:10;5.63;;;2.85;;
35877;SDS011;21982;49.804;24.072;2023-07-29T02:39:36;7.40;;;3.20;;
35877;SDS011;21982;49.804;24.072;2023-07-29T02:42:02;6.95;;;3.17;;
35877;SDS011;21982;49.804;24.072;2023-07-29T02:44:28;6.07;;;2.65;;
35877;SDS011;21982;49.804;24.072;2023-07-29T02:46:53;7.63;;;2.65;;
35877;SDS011;21982;49.804;24.072;2023-07-29T02:49:20;7.32;;;2.80;;
35877;SDS011;21982;49.804;24.072;2023-07-29T02:51:46;6.97;;;3.35;;
35877;SDS011;21982;49.804;24.072;2023-07-29T02:54:11;5.05;;;3.00;;
35877;SDS011;21982;49.804;24.072;2023-07-29T02:56:37;5.95;;;3.05;;
35877;SDS011;21982;49.804;24.072;2023-07-29T02:59:02;8.00;;;2.97;;
35877;SDS011;21982;49.804;24.072;2023-07-29T03:01:28;5.05;;;2.30;;
35877;SDS011;21982;49.804;24.072;2023-07-29T03:03:53;6.78;;;3.08;;
35877;SDS011;21982;49.804;24.072;2023-07-29T03:06:18;5.75;;;2.30;;
35877;SDS011;21982;49.804;24.072;2023-07-29T03:08:45;5.15;;;2.67;;
35877;SDS011;21982;49.804;24.072;2023-07-29T03:11:12;7.95;;;3.53;;
35877;SDS011;21982;49.804;24.072;2023-07-29T03:13:38;7.43;;;4.20;;
35877;SDS011;21982;49.804;24.072;2023-07-29T03:16:06;9.90;;;3.70;;
35877;SDS011;21982;49.804;24.072;2023-07-29T03:18:31;7.78;;;3.03;;
35877;SDS011;21982;49.804;24.072;2023-07-29T03:20:57;6.47;;;2.85;;
35877;SDS011;21982;49.804;24.072;2023-07-29T03:23:22;6.05;;;2.97;;
35877;SDS011;21982;49.804;24.072;2023-07-29T03:25:48;10.43;;;2.65;;
35877;SDS011;21982;49.804;24.072;2023-07-29T03:28:16;6.05;;;3.13;;
35877;SDS011;21982;49.804;24.072;2023-07-29T03:30:41;3.88;;;2.42;;
35877;SDS011;21982;49.804;24.072;2023-07-29T03:33:07;5.38;;;2.50;;
35877;SDS011;21982;49.804;24.072;2023-07-29T03:35:32;6.85;;;2.92;;
35877;SDS011;21982;49.804;24.072;2023-07-29T03:37:58;5.47;;;2.63;;
35877;SDS011;21982;49.804;24.072;2023-07-29T03:40:23;3.97;;;2.33;;
35877;SDS011;21982;49.804;24.072;2023-07-29T03:42:48;5.03;;;2.65;;
35877;SDS011;21982;49.804;24.072;2023-07-29T03:45:14;7.40;;;2.75;;
35877;SDS011;21982;49.804;24.072;2023-07-29T03:47:40;6.25;;;2.67;;
35877;SDS011;21982;49.804;24.072;2023-07-29T03:50:06;4.63;;;2.13;;
35877;SDS011;21982;49.804;24.072;2023-07-29T03:52:32;4.78;;;2.45;;
35877;SDS011;21982;49.804;24.072;2023-07-29T03:54:57;7.32;;;2.88;;
35877;SDS011;21982;49.804;24.072;2023-07-29T03:57:22;6.25;;;2.83;;
35877;SDS011;21982;49.804;24.072;2023-07-29T03:59:48;6.88;;;3.20;;
35877;SDS011;21982;49.804;24.072;2023-07-29T04:02:13;5.05;;;2.50;;
35877;SDS011;21982;49.804;24.072;2023-07-29T04:04:39;8.57;;;3.88;;
35877;SDS011;21982;49.804;24.072;2023-07-29T04:07:06;4.90;;;3.20;;
35877;SDS011;21982;49.804;24.072;2023-07-29T04:09:32;9.75;;;3.45;;
35877;SDS011;21982;49.804;24.072;2023-07-29T04:11:57;6.05;;;2.65;;
35877;SDS011;21982;49.804;24.072;2023-07-29T04:14:23;4.53;;;2.85;;
35877;SDS011;21982;49.804;24.072;2023-07-29T04:16:49;4.90;;;2.58;;
35877;SDS011;21982;49.804;24.072;2023-07-29T04:19:14;4.22;;;2.50;;
35877;SDS011;21982;49.804;24.072;2023-07-29T04:21:40;5.20;;;2.55;;
35877;SDS011;21982;49.804;24.072;2023-07-29T04:24:05;5.43;;;2.30;;
35877;SDS011;21982;49.804;24.072;2023-07-29T04:26:30;5.05;;;2.75;;
35877;SDS011;21982;49.804;24.072;2023-07-29T04:28:56;6.13;;;2.75;;
35877;SDS011;21982;49.804;24.072;2023-07-29T04:31:21;5.22;;;2.80;;
35877;SDS011;21982;49.804;24.072;2023-07-29T04:33:46;4.65;;;2.80;;
35877;SDS011;21982;49.804;24.072;2023-07-29T04:36:12;5.10;;;2.50;;
35877;SDS011;21982;49.804;24.072;2023-07-29T04:38:37;5.30;;;2.83;;
35877;SDS011;21982;49.804;24.072;2023-07-29T04:41:03;4.90;;;2.83;;
35877;SDS011;21982;49.804;24.072;2023-07-29T04:43:30;6.28;;;3.15;;
35877;SDS011;21982;49.804;24.072;2023-07-29T04:45:56;5.22;;;2.63;;
35877;SDS011;21982;49.804;24.072;2023-07-29T04:48:22;5.80;;;2.47;;
35877;SDS011;21982;49.804;24.072;2023-07-29T04:50:47;6.50;;;2.67;;
35877;SDS011;21982;49.804;24.072;2023-07-29T04:53:13;6.15;;;2.50;;
35877;SDS011;21982;49.804;24.072;2023-07-29T04:55:41;4.43;;;2.22;;
35877;SDS011;21982;49.804;24.072;2023-07-29T04:58:07;6.40;;;2.33;;
35877;SDS011;21982;49.804;24.072;2023-07-29T05:00:33;4.90;;;2.47;;
35877;SDS011;21982;49.804;24.072;2023-07-29T05:02:59;8.02;;;2.70;;
35877;SDS011;21982;49.804;24.072;2023-07-29T05:05:24;4.38;;;2.38;;
35877;SDS011;21982;49.804;24.072;2023-07-29T05:07:49;5.10;;;2.33;;
35877;SDS011;21982;49.804;24.072;2023-07-29T05:10:15;5.78;;;2.70;;
35877;SDS011;21982;49.804;24.072;2023-07-29T05:12:41;7.30;;;3.80;;
35877;SDS011;21982;49.804;24.072;2023-07-29T05:15:07;5.30;;;2.22;;
35877;SDS011;21982;49.804;24.072;2023-07-29T05:17:33;4.85;;;3.03;;
35877;SDS011;21982;49.804;24.072;2023-07-29T05:19:59;5.97;;;2.78;;
35877;SDS011;21982;49.804;24.072;2023-07-29T05:22:24;5.25;;;2.10;;
35877;SDS011;21982;49.804;24.072;2023-07-29T05:24:50;6.43;;;2.50;;
35877;SDS011;21982;49.804;24.072;2023-07-29T05:27:15;5.53;;;2.15;;
35877;SDS011;21982;49.804;24.072;2023-07-29T05:29:41;3.50;;;2.00;;
35877;SDS011;21982;49.804;24.072;2023-07-29T05:34:42;5.30;;;2.00;;
35877;SDS011;21982;49.804;24.072;2023-07-29T05:37:07;5.47;;;2.13;;
35877;SDS011;21982;49.804;24.072;2023-07-29T05:39:34;4.20;;;2.13;;
35877;SDS011;21982;49.804;24.072;2023-07-29T05:42:00;3.78;;;2.15;;
35877;SDS011;21982;49.804;24.072;2023-07-29T05:44:28;5.55;;;1.90;;
35877;SDS011;21982;49.804;24.072;2023-07-29T05:46:55;5.20;;;2.30;;
35877;SDS011;21982;49.804;24.072;2023-07-29T05:49:21;3.58;;;1.70;;
35877;SDS011;21982;49.804;24.072;2023-07-29T05:51:47;7.90;;;2.63;;
35877;SDS011;21982;49.804;24.072;2023-07-29T05:54:12;5.15;;;2.00;;
35877;SDS011;21982;49.804;24.072;2023-07-29T05:56:38;5.15;;;2.17;;
35877;SDS011;21982;49.804;24.072;2023-07-29T05:59:05;2.72;;;1.70;;
35877;SDS011;21982;49.804;24.072;2023-07-29T06:01:30;8.80;;;1.80;;
35877;SDS011;21982;49.804;24.072;2023-07-29T06:09:53;3.65;;;1.83;;
35877;SDS011;21982;49.804;24.072;2023-07-29T06:12:23;5.05;;;2.55;;
35877;SDS011;21982;49.804;24.072;2023-07-29T06:14:49;5.35;;;2.60;;
35877;SDS011;21982;49.804;24.072;2023-07-29T06:17:14;6.50;;;2.50;;
35877;SDS011;21982;49.804;24.072;2023-07-29T06:19:40;12.95;;;2.47;;
35877;SDS011;21982;49.804;24.072;2023-07-29T06:22:07;5.93;;;2.40;;
35877;SDS011;21982;49.804;24.072;2023-07-29T06:24:32;5.47;;;2.15;;
35877;SDS011;21982;49.804;24.072;2023-07-29T06:26:58;6.00;;;2.53;;
35877;SDS011;21982;49.804;24.072;2023-07-29T06:29:23;3.70;;;1.98;;
35877;SDS011;21982;49.804;24.072;2023-07-29T06:31:50;5.20;;;2.00;;
35877;SDS011;21982;49.804;24.072;2023-07-29T06:34:16;5.88;;;1.88;;
35877;SDS011;21982;49.804;24.072;2023-07-29T06:36:42;6.13;;;1.88;;
35877;SDS011;21982;49.804;24.072;2023-07-29T06:39:07;3.78;;;1.80;;
35877;SDS011;21982;49.804;24.072;2023-07-29T06:41:33;4.65;;;1.90;;
35877;SDS011;21982;49.804;24.072;2023-07-29T06:43:58;4.03;;;1.60;;
35877;SDS011;21982;49.804;24.072;2023-07-29T06:46:23;4.05;;;1.45;;
35877;SDS011;21982;49.804;24.072;2023-07-29T06:48:49;4.18;;;1.95;;
35877;SDS011;21982;49.804;24.072;2023-07-29T06:51:14;4.43;;;1.80;;
35877;SDS011;21982;49.804;24.072;2023-07-29T06:53:41;4.35;;;1.80;;
35877;SDS011;21982;49.804;24.072;2023-07-29T06:56:06;3.20;;;1.30;;
35877;SDS011;21982;49.804;24.072;2023-07-29T06:58:31;3.78;;;1.73;;
35877;SDS011;21982;49.804;24.072;2023-07-29T07:13:27;3.65;;;1.67;;
35877;SDS011;21982;49.804;24.072;2023-07-29T07:15:56;2.72;;;1.52;;
35877;SDS011;21982;49.804;24.072;2023-07-29T07:18:23;3.15;;;1.80;;
35877;SDS011;21982;49.804;24.072;2023-07-29T07:20:49;3.55;;;2.50;;
35877;SDS011;21982;49.804;24.072;2023-07-29T07:23:15;3.33;;;1.65;;
35877;SDS011;21982;49.804;24.072;2023-07-29T08:41:46;3.08;;;1.27;;
35877;SDS011;21982;49.804;24.072;2023-07-29T08:44:24;4.75;;;1.23;;
35877;SDS011;21982;49.804;24.072;2023-07-29T08:46:51;4.10;;;1.70;;
35877;SDS011;21982;49.804;24.072;2023-07-29T08:49:21;3.95;;;1.27;;
35877;SDS011;21982;49.804;24.072;2023-07-29T08:51:48;4.28;;;1.42;;
35877;SDS011;21982;49.804;24.072;2023-07-29T08:54:14;3.10;;;1.50;;
35877;SDS011;21982;49.804;24.072;2023-07-29T09:28:26;3.50;;;1.42;;
35877;SDS011;21982;49.804;24.072;2023-07-29T09:30:53;1.48;;;0.98;;
35877;SDS011;21982;49.804;24.072;2023-07-29T09:33:18;3.03;;;1.20;;
35877;SDS011;21982;49.804;24.072;2023-07-29T09:35:45;4.70;;;1.25;;
35877;SDS011;21982;49.804;24.072;2023-07-29T09:38:14;3.70;;;1.33;;
35877;SDS011;21982;49.804;24.072;2023-07-29T09:40:46;6.43;;;1.75;;
35877;SDS011;21982;49.804;24.072;2023-07-29T09:43:13;3.17;;;1.13;;
35877;SDS011;21982;49.804;24.072;2023-07-29T09:45:44;2.85;;;1.45;;
35877;SDS011;21982;49.804;24.072;2023-07-29T09:48:11;4.05;;;1.50;;
35877;SDS011;21982;49.804;24.072;2023-07-29T09:50:36;3.05;;;1.27;;
35877;SDS011;21982;49.804;24.072;2023-07-29T09:53:11;3.47;;;1.63;;
35877;SDS011;21982;49.804;24.072;2023-07-29T09:55:39;3.42;;;1.17;;
35877;SDS011;21982;49.804;24.072;2023-07-29T09:58:05;2.53;;;1.45;;
35877;SDS011;21982;49.804;24.072;2023-07-29T10:00:33;4.65;;;1.60;;
35877;SDS011;21982;49.804;24.072;2023-07-29T10:02:59;2.70;;;1.23;;
35877;SDS011;21982;49.804;24.072;2023-07-29T10:05:27;2.47;;;1.50;;
35877;SDS011;21982;49.804;24.072;2023-07-29T10:07:54;2.67;;;1.63;;
35877;SDS011;21982;49.804;24.072;2023-07-29T10:10:21;4.25;;;1.33;;
35877;SDS011;21982;49.804;24.072;2023-07-29T10:12:47;8.82;;;1.50;;
35877;SDS011;21982;49.804;24.072;2023-07-29T10:15:12;2.83;;;1.23;;
35877;SDS011;21982;49.804;24.072;2023-07-29T10:17:39;3.88;;;1.30;;
35877;SDS011;21982;49.804;24.072;2023-07-29T10:20:06;2.97;;;1.63;;
35877;SDS011;21982;49.804;24.072;2023-07-29T10:22:36;5.30;;;1.50;;
35877;SDS011;21982;49.804;24.072;2023-07-29T10:25:04;3.67;;;1.50;;
35877;SDS011;21982;49.804;24.072;2023-07-29T10:27:40;3.90;;;1.50;;
35877;SDS011;21982;49.804;24.072;2023-07-29T10:30:10;2.78;;;1.30;;
35877;SDS011;21982;49.804;24.072;2023-07-29T10:32:38;2.47;;;1.30;;
35877;SDS011;21982;49.804;24.072;2023-07-29T10:35:06;1.83;;;1.17;;
35877;SDS011;21982;49.804;24.072;2023-07-29T10:37:32;4.32;;;1.88;;
35877;SDS011;21982;49.804;24.072;2023-07-29T10:39:58;3.80;;;1.33;;
35877;SDS011;21982;49.804;24.072;2023-07-29T10:42:23;2.85;;;1.38;;
35877;SDS011;21982;49.804;24.072;2023-07-29T10:44:49;2.47;;;1.40;;
35877;SDS011;21982;49.804;24.072;2023-07-29T10:47:25;1.83;;;1.17;;
35877;SDS011;21982;49.804;24.072;2023-07-29T10:49:56;2.20;;;1.10;;
35877;SDS011;21982;49.804;24.072;2023-07-29T10:55:00;2.15;;;1.13;;
35877;SDS011;21982;49.804;24.072;2023-07-29T10:57:33;2.63;;;1.60;;
35877;SDS011;21982;49.804;24.072;2023-07-29T11:00:05;2.22;;;1.38;;
35877;SDS011;21982;49.804;24.072;2023-07-29T11:02:35;1.77;;;1.00;;
35877;SDS011;21982;49.804;24.072;2023-07-29T11:05:06;2.50;;;1.50;;
35877;SDS011;21982;49.804;24.072;2023-07-29T11:17:32;3.25;;;1.48;;
35877;SDS011;21982;49.804;24.072;2023-07-29T11:20:03;4.82;;;1.90;;
35877;SDS011;21982;49.804;24.072;2023-07-29T11:22:33;4.10;;;1.70;;
35877;SDS011;21982;49.804;24.072;2023-07-29T11:25:05;1.98;;;1.10;;
35877;SDS011;21982;49.804;24.072;2023-07-29T11:27:33;4.20;;;1.70;;
35877;SDS011;21982;49.804;24.072;2023-07-29T11:29:59;3.05;;;1.38;;
35877;SDS011;21982;49.804;24.072;2023-07-29T11:32:26;2.88;;;1.60;;
35877;SDS011;21982;49.804;24.072;2023-07-29T11:34:52;3.40;;;1.85;;
35877;SDS011;21982;49.804;24.072;2023-07-29T11:37:20;4.70;;;1.60;;
35877;SDS011;21982;49.804;24.072;2023-07-29T11:39:46;2.13;;;1.23;;
35877;SDS011;21982;49.804;24.072;2023-07-29T11:42:14;2.60;;;1.38;;
35877;SDS011;21982;49.804;24.072;2023-07-29T11:44:40;3.72;;;1.23;;
35877;SDS011;21982;49.804;24.072;2023-07-29T11:47:06;1.95;;;1.30;;
35877;SDS011;21982;49.804;24.072;2023-07-29T11:49:37;3.05;;;1.50;;
35877;SDS011;21982;49.804;24.072;2023-07-29T11:52:05;2.67;;;1.27;;
35877;SDS011;21982;49.804;24.072;2023-07-29T11:54:32;2.22;;;1.23;;
35877;SDS011;21982;49.804;24.072;2023-07-29T11:56:58;2.90;;;1.80;;
35877;SDS011;21982;49.804;24.072;2023-07-29T11:59:24;2.83;;;1.45;;
35877;SDS011;21982;49.804;24.072;2023-07-29T12:01:49;2.78;;;1.52;;
35877;SDS011;21982;49.804;24.072;2023-07-29T12:04:15;4.15;;;1.48;;
35877;SDS011;21982;49.804;24.072;2023-07-29T12:06:41;3.90;;;1.67;;
35877;SDS011;21982;49.804;24.072;2023-07-29T12:09:07;4.25;;;1.90;;
35877;SDS011;21982;49.804;24.072;2023-07-29T12:11:34;3.15;;;1.55;;
35877;SDS011;21982;49.804;24.072;2023-07-29T12:14:00;5.25;;;1.85;;
35877;SDS011;21982;49.804;24.072;2023-07-29T12:16:26;4.32;;;1.90;;
35877;SDS011;21982;49.804;24.072;2023-07-29T12:18:51;3.97;;;1.85;;
35877;SDS011;21982;49.804;24.072;2023-07-29T12:28:52;4.90;;;1.88;;
35877;SDS011;21982;49.804;24.072;2023-07-29T12:31:18;4.30;;;2.50;;
35877;SDS011;21982;49.804;24.072;2023-07-29T12:33:43;5.43;;;2.78;;
35877;SDS011;21982;49.804;24.072;2023-07-29T12:36:10;6.00;;;2.67;;
35877;SDS011;21982;49.804;24.072;2023-07-29T12:38:58;6.85;;;2.78;;
35877;SDS011;21982;49.804;24.072;2023-07-29T12:41:24;6.38;;;2.97;;
35877;SDS011;21982;49.804;24.072;2023-07-29T12:43:50;9.23;;;3.42;;
35877;SDS011;21982;49.804;24.072;2023-07-29T12:46:15;15.65;;;5.68;;
35877;SDS011;21982;49.804;24.072;2023-07-29T12:48:40;6.32;;;2.80;;
35877;SDS011;21982;49.804;24.072;2023-07-29T12:51:06;7.68;;;2.95;;
35877;SDS011;21982;49.804;24.072;2023-07-29T12:53:31;5.72;;;2.75;;
35877;SDS011;21982;49.804;24.072;2023-07-29T12:55:56;14.65;;;5.85;;
35877;SDS011;21982;49.804;24.072;2023-07-29T12:58:22;5.00;;;2.47;;
35877;SDS011;21982;49.804;24.072;2023-07-29T13:00:47;8.65;;;4.10;;
35877;SDS011;21982;49.804;24.072;2023-07-29T13:03:18;12.30;;;4.60;;
35877;SDS011;21982;49.804;24.072;2023-07-29T13:05:52;8.13;;;3.63;;
35877;SDS011;21982;49.804;24.072;2023-07-29T13:08:18;6.00;;;3.05;;
35877;SDS011;21982;49.804;24.072;2023-07-29T13:10:48;8.63;;;3.38;;
35877;SDS011;21982;49.804;24.072;2023-07-29T13:13:13;6.60;;;2.80;;
35877;SDS011;21982;49.804;24.072;2023-07-29T13:15:39;6.75;;;2.30;;
35877;SDS011;21982;49.804;24.072;2023-07-29T13:18:04;7.63;;;2.80;;
35877;SDS011;21982;49.804;24.072;2023-07-29T13:20:29;7.47;;;3.15;;
35877;SDS011;21982;49.804;24.072;2023-07-29T13:22:55;4.40;;;2.28;;
35877;SDS011;21982;49.804;24.072;2023-07-29T13:25:20;8.80;;;2.90;;
35877;SDS011;21982;49.804;24.072;2023-07-29T13:27:46;7.28;;;2.75;;
35877;SDS011;21982;49.804;24.072;2023-07-29T13:30:11;5.82;;;2.47;;
35877;SDS011;21982;49.804;24.072;2023-07-29T13:32:36;7.60;;;3.25;;
35877;SDS011;21982;49.804;24.072;2023-07-29T13:35:02;5.78;;;2.63;;
35877;SDS011;21982;49.804;24.072;2023-07-29T13:37:27;5.25;;;2.03;;
35877;SDS011;21982;49.804;24.072;2023-07-29T13:39:53;7.97;;;2.35;;
35877;SDS011;21982;49.804;24.072;2023-07-29T13:42:18;3.80;;;1.98;;
35877;SDS011;21982;49.804;24.072;2023-07-29T13:44:44;2.78;;;1.30;;
35877;SDS011;21982;49.804;24.072;2023-07-29T13:47:09;5.35;;;2.17;;
35877;SDS011;21982;49.804;24.072;2023-07-29T13:49:34;4.55;;;2.05;;
35877;SDS011;21982;49.804;24.072;2023-07-29T13:52:00;3.72;;;1.65;;
35877;SDS011;21982;49.804;24.072;2023-07-29T13:54:25;4.75;;;2.25;;
35877;SDS011;21982;49.804;24.072;2023-07-29T13:56:53;3.70;;;1.95;;
35877;SDS011;21982;49.804;24.072;2023-07-29T13:59:19;4.88;;;1.98;;
35877;SDS011;21982;49.804;24.072;2023-07-29T14:01:44;3.95;;;1.80;;
35877;SDS011;21982;49.804;24.072;2023-07-29T14:04:09;5.97;;;1.58;;
35877;SDS011;21982;49.804;24.072;2023-07-29T14:06:35;3.55;;;1.80;;
35877;SDS011;21982;49.804;24.072;2023-07-29T14:09:00;4.97;;;2.03;;
35877;SDS011;21982;49.804;24.072;2023-07-29T14:11:26;7.38;;;2.28;;
35877;SDS011;21982;49.804;24.072;2023-07-29T14:13:51;5.03;;;2.50;;
35877;SDS011;21982;49.804;24.072;2023-07-29T14:16:16;5.10;;;2.20;;
35877;SDS011;21982;49.804;24.072;2023-07-29T14:18:42;5.10;;;2.85;;
35877;SDS011;21982;49.804;24.072;2023-07-29T14:21:07;8.20;;;2.72;;
35877;SDS011;21982;49.804;24.072;2023-07-29T14:23:34;7.28;;;3.08;;
35877;SDS011;21982;49.804;24.072;2023-07-29T14:25:59;6.75;;;3.28;;
35877;SDS011;21982;49.804;24.072;2023-07-29T14:28:24;6.07;;;2.50;;
35877;SDS011;21982;49.804;24.072;2023-07-29T14:30:50;5.25;;;2.35;;
35877;SDS011;21982;49.804;24.072;2023-07-29T14:33:15;10.90;;;3.72;;
35877;SDS011;21982;49.804;24.072;2023-07-29T14:35:40;5.28;;;2.45;;
35877;SDS011;21982;49.804;24.072;2023-07-29T14:38:06;5.43;;;2.30;;
35877;SDS011;21982;49.804;24.072;2023-07-29T14:40:31;6.43;;;2.63;;
35877;SDS011;21982;49.804;24.072;2023-07-29T14:42:57;4.28;;;2.05;;
35877;SDS011;21982;49.804;24.072;2023-07-29T14:45:22;5.07;;;2.00;;
35877;SDS011;21982;49.804;24.072;2023-07-29T14:47:47;3.67;;;2.30;;
35877;SDS011;21982;49.804;24.072;2023-07-29T14:50:13;3.88;;;2.30;;
35877;SDS011;21982;49.804;24.072;2023-07-29T14:52:38;4.82;;;2.38;;
35877;SDS011;21982;49.804;24.072;2023-07-29T14:55:04;5.40;;;2.95;;
35877;SDS011;21982;49.804;24.072;2023-07-29T14:57:29;6.00;;;2.90;;
35877;SDS011;21982;49.804;24.072;2023-07-29T14:59:58;5.18;;;2.13;;
35877;SDS011;21982;49.804;24.072;2023-07-29T15:02:23;5.10;;;2.10;;
35877;SDS011;21982;49.804;24.072;2023-07-29T15:04:50;5.03;;;1.95;;
35877;SDS011;21982;49.804;24.072;2023-07-29T15:07:30;4.63;;;2.38;;
35877;SDS011;21982;49.804;24.072;2023-07-29T15:09:59;6.47;;;2.42;;
35877;SDS011;21982;49.804;24.072;2023-07-29T15:12:25;10.57;;;2.92;;
35877;SDS011;21982;49.804;24.072;2023-07-29T15:14:51;4.93;;;1.88;;
35877;SDS011;21982;49.804;24.072;2023-07-29T15:17:16;4.95;;;2.25;;
35877;SDS011;21982;49.804;24.072;2023-07-29T15:19:41;5.53;;;1.50;;
35877;SDS011;21982;49.804;24.072;2023-07-29T15:22:07;5.75;;;3.10;;
35877;SDS011;21982;49.804;24.072;2023-07-29T15:27:21;11.30;;;4.80;;
35877;SDS011;21982;49.804;24.072;2023-07-29T15:29:47;10.70;;;5.28;;
35877;SDS011;21982;49.804;24.072;2023-07-29T15:32:19;12.82;;;5.55;;
35877;SDS011;21982;49.804;24.072;2023-07-29T15:34:45;8.85;;;2.33;;
35877;SDS011;21982;49.804;24.072;2023-07-29T15:37:12;3.65;;;1.90;;
35877;SDS011;21982;49.804;24.072;2023-07-29T15:39:38;3.58;;;1.95;;
35877;SDS011;21982;49.804;24.072;2023-07-29T15:42:03;6.28;;;2.15;;
35877;SDS011;21982;49.804;24.072;2023-07-29T15:44:29;4.50;;;1.90;;
35877;SDS011;21982;49.804;24.072;2023-07-29T15:46:57;5.07;;;2.38;;
35877;SDS011;21982;49.804;24.072;2023-07-29T15:49:23;3.95;;;2.00;;
35877;SDS011;21982;49.804;24.072;2023-07-29T15:51:48;5.68;;;2.28;;
35877;SDS011;21982;49.804;24.072;2023-07-29T15:54:14;3.33;;;1.90;;
35877;SDS011;21982;49.804;24.072;2023-07-29T15:56:40;4.28;;;1.85;;
35877;SDS011;21982;49.804;24.072;2023-07-29T15:59:07;6.35;;;2.40;;
35877;SDS011;21982;49.804;24.072;2023-07-29T16:01:34;7.40;;;3.15;;
35877;SDS011;21982;49.804;24.072;2023-07-29T16:04:02;6.50;;;2.25;;
35877;SDS011;21982;49.804;24.072;2023-07-29T16:06:27;4.88;;;2.63;;
35877;SDS011;21982;49.804;24.072;2023-07-29T16:08:56;4.40;;;2.28;;
35877;SDS011;21982;49.804;24.072;2023-07-29T16:11:27;3.53;;;1.83;;
35877;SDS011;21982;49.804;24.072;2023-07-29T16:13:53;4.85;;;2.33;;
35877;SDS011;21982;49.804;24.072;2023-07-29T16:16:19;5.43;;;1.70;;
35877;SDS011;21982;49.804;24.072;2023-07-29T16:18:44;3.30;;;2.10;;
35877;SDS011;21982;49.804;24.072;2023-07-29T16:21:09;3.15;;;2.03;;
35877;SDS011;21982;49.804;24.072;2023-07-29T16:23:36;3.95;;;2.55;;
35877;SDS011;21982;49.804;24.072;2023-07-29T16:26:02;4.38;;;2.00;;
35877;SDS011;21982;49.804;24.072;2023-07-29T16:28:28;6.43;;;3.00;;
35877;SDS011;21982;49.804;24.072;2023-07-29T16:30:54;4.55;;;2.13;;
35877;SDS011;21982;49.804;24.072;2023-07-29T16:33:25;5.43;;;1.70;;
35877;SDS011;21982;49.804;24.072;2023-07-29T16:35:50;6.65;;;2.40;;
35877;SDS011;21982;49.804;24.072;2023-07-29T16:38:16;7.65;;;2.50;;
35877;SDS011;21982;49.804;24.072;2023-07-29T16:40:42;8.00;;;2.78;;
35877;SDS011;21982;49.804;24.072;2023-07-29T16:45:43;6.43;;;3.38;;
35877;SDS011;21982;49.804;24.072;2023-07-29T16:48:08;5.63;;;2.75;;
35877;SDS011;21982;49.804;24.072;2023-07-29T16:50:39;9.70;;;3.30;;
35877;SDS011;21982;49.804;24.072;2023-07-29T16:53:09;7.78;;;4.10;;
35877;SDS011;21982;49.804;24.072;2023-07-29T16:55:35;6.68;;;3.20;;
35877;SDS011;21982;49.804;24.072;2023-07-29T16:58:01;6.85;;;3.47;;
35877;SDS011;21982;49.804;24.072;2023-07-29T17:00:26;6.43;;;2.85;;
35877;SDS011;21982;49.804;24.072;2023-07-29T17:02:52;6.53;;;2.90;;
35877;SDS011;21982;49.804;24.072;2023-07-29T17:05:17;4.90;;;1.90;;
35877;SDS011;21982;49.804;24.072;2023-07-29T17:07:46;7.20;;;2.28;;